sensor_id;sensor_type;location;lat;lon;timestamp;P1;durP1;ratioP1;P2;durP2;ratioP2
34403;SDS011;23116;47.660;9.126;2023-03-18T00:01:41;4.05;;;3.65;;
34403;SDS011;23116;47.660;9.126;2023-03-18T00:04:28;4.80;;;3.60;;
34403;SDS011;23116;47.660;9.126;2023-03-18T00:07:16;4.30;;;3.28;;
34403;SDS011;23116;47.660;9.126;2023-03-18T00:10:04;3.97;;;3.58;;
34403;SDS011;23116;47.660;9.126;2023-03-18T00:12:54;4.22;;;3.15;;
34403;SDS011;23116;47.660;9.126;2023-03-18T00:15:42;4.93;;;3.50;;
34403;SDS011;23116;47.660;9.126;2023-03-18T00:18:30;4.38;;;3.47;;
34403;SDS011;23116;47.660;9.126;2023-03-18T00:21:18;5.25;;;2.90;;
34403;SDS011;23116;47.660;9.126;2023-03-18T00:24:07;4.22;;;3.35;;
34403;SDS011;23116;47.660;9.126;2023-03-18T00:26:56;4.05;;;3.30;;
34403;SDS011;23116;47.660;9.126;2023-03-18T00:29:43;5.00;;;3.33;;
34403;SDS011;23116;47.660;9.126;2023-03-18T00:32:31;3.55;;;2.85;;
34403;SDS011;23116;47.660;9.126;2023-03-18T00:35:19;5.50;;;3.47;;
34403;SDS011;23116;47.660;9.126;2023-03-18T00:38:06;3.40;;;3.10;;
34403;SDS011;23116;47.660;9.126;2023-03-18T00:41:00;3.75;;;3.25;;
34403;SDS011;23116;47.660;9.126;2023-03-18T00:43:56;3.83;;;3.15;;
34403;SDS011;23116;47.660;9.126;2023-03-18T00:46:44;3.78;;;2.85;;
34403;SDS011;23116;47.660;9.126;2023-03-18T00:49:31;4.03;;;3.13;;
34403;SDS011;23116;47.660;9.126;2023-03-18T00:52:19;3.97;;;3.42;;
34403;SDS011;23116;47.660;9.126;2023-03-18T00:55:07;4.45;;;3.20;;
34403;SDS011;23116;47.660;9.126;2023-03-18T00:57:54;3.67;;;3.25;;
34403;SDS011;23116;47.660;9.126;2023-03-18T01:00:42;3.83;;;3.13;;
34403;SDS011;23116;47.660;9.126;2023-03-18T01:03:30;3.72;;;3.03;;
34403;SDS011;23116;47.660;9.126;2023-03-18T01:06:22;4.63;;;3.45;;
34403;SDS011;23116;47.660;9.126;2023-03-18T01:09:12;4.05;;;3.33;;
34403;SDS011;23116;47.660;9.126;2023-03-18T01:12:00;4.28;;;3.50;;
34403;SDS011;23116;47.660;9.126;2023-03-18T01:14:48;4.22;;;3.58;;
34403;SDS011;23116;47.660;9.126;2023-03-18T01:17:37;4.82;;;3.33;;
34403;SDS011;23116;47.660;9.126;2023-03-18T01:20:24;5.03;;;3.58;;
34403;SDS011;23116;47.660;9.126;2023-03-18T01:23:12;6.18;;;3.60;;
34403;SDS011;23116;47.660;9.126;2023-03-18T01:26:00;4.18;;;3.13;;
34403;SDS011;23116;47.660;9.126;2023-03-18T01:28:47;4.63;;;3.53;;
34403;SDS011;23116;47.660;9.126;2023-03-18T01:31:36;4.57;;;3.50;;
34403;SDS011;23116;47.660;9.126;2023-03-18T01:34:24;4.03;;;3.60;;
34403;SDS011;23116;47.660;9.126;2023-03-18T01:37:15;3.92;;;3.53;;
34403;SDS011;23116;47.660;9.126;2023-03-18T01:40:04;5.35;;;3.97;;
34403;SDS011;23116;47.660;9.126;2023-03-18T01:42:58;6.22;;;4.38;;
34403;SDS011;23116;47.660;9.126;2023-03-18T01:49:25;5.07;;;4.32;;
34403;SDS011;23116;47.660;9.126;2023-03-18T01:52:20;4.90;;;3.85;;
34403;SDS011;23116;47.660;9.126;2023-03-18T01:55:12;4.15;;;3.67;;
34403;SDS011;23116;47.660;9.126;2023-03-18T01:58:06;4.47;;;3.63;;
34403;SDS011;23116;47.660;9.126;2023-03-18T02:01:23;3.88;;;3.42;;
34403;SDS011;23116;47.660;9.126;2023-03-18T02:04:26;4.60;;;3.80;;
34403;SDS011;23116;47.660;9.126;2023-03-18T02:07:30;4.50;;;3.63;;
34403;SDS011;23116;47.660;9.126;2023-03-18T02:10:23;4.40;;;3.70;;
34403;SDS011;23116;47.660;9.126;2023-03-18T02:13:15;5.63;;;4.00;;
34403;SDS011;23116;47.660;9.126;2023-03-18T02:16:11;5.82;;;4.28;;
34403;SDS011;23116;47.660;9.126;2023-03-18T02:19:14;4.68;;;3.88;;
34403;SDS011;23116;47.660;9.126;2023-03-18T02:22:40;4.22;;;3.78;;
34403;SDS011;23116;47.660;9.126;2023-03-18T02:25:40;3.80;;;3.40;;
34403;SDS011;23116;47.660;9.126;2023-03-18T02:29:05;4.55;;;3.88;;
34403;SDS011;23116;47.660;9.126;2023-03-18T02:31:55;4.03;;;3.63;;
34403;SDS011;23116;47.660;9.126;2023-03-18T02:34:45;4.10;;;3.30;;
34403;SDS011;23116;47.660;9.126;2023-03-18T02:37:33;3.53;;;2.97;;
34403;SDS011;23116;47.660;9.126;2023-03-18T02:40:25;4.03;;;3.35;;
34403;SDS011;23116;47.660;9.126;2023-03-18T02:43:21;3.58;;;3.03;;
34403;SDS011;23116;47.660;9.126;2023-03-18T02:49:33;3.20;;;2.90;;
34403;SDS011;23116;47.660;9.126;2023-03-18T02:52:22;3.53;;;3.05;;
34403;SDS011;23116;47.660;9.126;2023-03-18T02:55:09;3.72;;;2.70;;
34403;SDS011;23116;47.660;9.126;2023-03-18T02:57:57;2.95;;;2.65;;
34403;SDS011;23116;47.660;9.126;2023-03-18T03:00:45;3.65;;;3.08;;
34403;SDS011;23116;47.660;9.126;2023-03-18T03:03:33;3.42;;;2.50;;
34403;SDS011;23116;47.660;9.126;2023-03-18T03:06:22;2.85;;;2.53;;
34403;SDS011;23116;47.660;9.126;2023-03-18T03:09:10;3.30;;;2.60;;
34403;SDS011;23116;47.660;9.126;2023-03-18T03:12:00;4.43;;;3.17;;
34403;SDS011;23116;47.660;9.126;2023-03-18T03:14:48;3.72;;;3.20;;
34403;SDS011;23116;47.660;9.126;2023-03-18T03:17:35;4.90;;;3.33;;
34403;SDS011;23116;47.660;9.126;2023-03-18T03:20:23;3.10;;;2.80;;
34403;SDS011;23116;47.660;9.126;2023-03-18T03:23:12;4.25;;;3.33;;
34403;SDS011;23116;47.660;9.126;2023-03-18T03:26:02;4.65;;;3.47;;
34403;SDS011;23116;47.660;9.126;2023-03-18T03:28:51;4.50;;;3.67;;
34403;SDS011;23116;47.660;9.126;2023-03-18T03:31:38;5.25;;;3.83;;
34403;SDS011;23116;47.660;9.126;2023-03-18T03:37:14;4.30;;;3.85;;
34403;SDS011;23116;47.660;9.126;2023-03-18T03:40:02;4.60;;;3.97;;
34403;SDS011;23116;47.660;9.126;2023-03-18T03:42:50;4.50;;;3.72;;
34403;SDS011;23116;47.660;9.126;2023-03-18T03:45:38;4.50;;;3.40;;
34403;SDS011;23116;47.660;9.126;2023-03-18T03:48:28;4.15;;;3.75;;
34403;SDS011;23116;47.660;9.126;2023-03-18T03:51:16;4.10;;;2.67;;
34403;SDS011;23116;47.660;9.126;2023-03-18T03:54:03;4.78;;;3.35;;
34403;SDS011;23116;47.660;9.126;2023-03-18T03:56:50;3.97;;;3.05;;
34403;SDS011;23116;47.660;9.126;2023-03-18T03:59:38;3.95;;;3.53;;
34403;SDS011;23116;47.660;9.126;2023-03-18T04:02:25;4.20;;;3.10;;
34403;SDS011;23116;47.660;9.126;2023-03-18T04:05:14;4.25;;;3.30;;
34403;SDS011;23116;47.660;9.126;2023-03-18T04:08:04;4.70;;;3.65;;
34403;SDS011;23116;47.660;9.126;2023-03-18T04:10:52;3.42;;;3.13;;
34403;SDS011;23116;47.660;9.126;2023-03-18T04:13:39;4.20;;;3.45;;
34403;SDS011;23116;47.660;9.126;2023-03-18T04:16:27;4.10;;;3.58;;
34403;SDS011;23116;47.660;9.126;2023-03-18T04:19:16;4.82;;;3.80;;
34403;SDS011;23116;47.660;9.126;2023-03-18T04:22:04;4.90;;;4.13;;
34403;SDS011;23116;47.660;9.126;2023-03-18T04:24:52;5.60;;;3.40;;
34403;SDS011;23116;47.660;9.126;2023-03-18T04:32:59;4.45;;;3.30;;
34403;SDS011;23116;47.660;9.126;2023-03-18T04:35:47;3.72;;;3.13;;
34403;SDS011;23116;47.660;9.126;2023-03-18T04:38:35;3.13;;;2.83;;
34403;SDS011;23116;47.660;9.126;2023-03-18T04:41:22;5.78;;;3.10;;
34403;SDS011;23116;47.660;9.126;2023-03-18T04:44:11;3.85;;;3.30;;
34403;SDS011;23116;47.660;9.126;2023-03-18T04:46:58;4.38;;;3.45;;
34403;SDS011;23116;47.660;9.126;2023-03-18T04:49:45;3.97;;;3.58;;
34403;SDS011;23116;47.660;9.126;2023-03-18T04:52:33;5.60;;;4.13;;
34403;SDS011;23116;47.660;9.126;2023-03-18T04:55:21;4.10;;;3.58;;
34403;SDS011;23116;47.660;9.126;2023-03-18T05:26:52;11.07;;;7.95;;
34403;SDS011;23116;47.660;9.126;2023-03-18T05:29:40;9.55;;;6.80;;
34403;SDS011;23116;47.660;9.126;2023-03-18T05:32:28;8.65;;;6.07;;
34403;SDS011;23116;47.660;9.126;2023-03-18T05:35:16;7.25;;;5.43;;
34403;SDS011;23116;47.660;9.126;2023-03-18T05:38:04;7.15;;;4.85;;
34403;SDS011;23116;47.660;9.126;2023-03-18T05:40:51;8.48;;;5.43;;
34403;SDS011;23116;47.660;9.126;2023-03-18T05:43:39;7.75;;;5.85;;
34403;SDS011;23116;47.660;9.126;2023-03-18T05:46:27;6.20;;;5.18;;
34403;SDS011;23116;47.660;9.126;2023-03-18T05:49:14;5.63;;;4.65;;
34403;SDS011;23116;47.660;9.126;2023-03-18T05:52:04;4.75;;;4.25;;
34403;SDS011;23116;47.660;9.126;2023-03-18T05:54:51;5.03;;;4.38;;
34403;SDS011;23116;47.660;9.126;2023-03-18T05:57:39;5.20;;;4.38;;
34403;SDS011;23116;47.660;9.126;2023-03-18T06:00:27;5.13;;;3.55;;
34403;SDS011;23116;47.660;9.126;2023-03-18T06:03:15;4.43;;;3.97;;
34403;SDS011;23116;47.660;9.126;2023-03-18T06:06:03;3.67;;;3.35;;
34403;SDS011;23116;47.660;9.126;2023-03-18T06:08:51;5.35;;;3.28;;
34403;SDS011;23116;47.660;9.126;2023-03-18T06:11:40;5.47;;;3.75;;
34403;SDS011;23116;47.660;9.126;2023-03-18T06:14:28;5.40;;;4.13;;
34403;SDS011;23116;47.660;9.126;2023-03-18T06:17:16;4.47;;;3.80;;
34403;SDS011;23116;47.660;9.126;2023-03-18T06:20:05;5.50;;;4.22;;
34403;SDS011;23116;47.660;9.126;2023-03-18T06:22:56;5.93;;;4.10;;
34403;SDS011;23116;47.660;9.126;2023-03-18T06:25:44;6.53;;;4.60;;
34403;SDS011;23116;47.660;9.126;2023-03-18T06:28:31;5.65;;;4.15;;
34403;SDS011;23116;47.660;9.126;2023-03-18T06:31:19;5.50;;;4.45;;
34403;SDS011;23116;47.660;9.126;2023-03-18T06:34:07;5.57;;;4.63;;
34403;SDS011;23116;47.660;9.126;2023-03-18T06:36:55;4.85;;;4.35;;
34403;SDS011;23116;47.660;9.126;2023-03-18T06:39:42;6.00;;;4.63;;
34403;SDS011;23116;47.660;9.126;2023-03-18T06:42:29;4.35;;;3.78;;
34403;SDS011;23116;47.660;9.126;2023-03-18T06:45:17;4.68;;;4.22;;
34403;SDS011;23116;47.660;9.126;2023-03-18T06:48:06;4.00;;;3.50;;
34403;SDS011;23116;47.660;9.126;2023-03-18T06:50:54;4.60;;;4.00;;
34403;SDS011;23116;47.660;9.126;2023-03-18T06:53:42;4.10;;;3.58;;
34403;SDS011;23116;47.660;9.126;2023-03-18T06:56:29;5.97;;;3.75;;
34403;SDS011;23116;47.660;9.126;2023-03-18T06:59:21;4.60;;;3.97;;
34403;SDS011;23116;47.660;9.126;2023-03-18T07:02:09;4.35;;;3.80;;
34403;SDS011;23116;47.660;9.126;2023-03-18T07:04:57;5.85;;;3.63;;
34403;SDS011;23116;47.660;9.126;2023-03-18T07:07:44;4.60;;;3.97;;
34403;SDS011;23116;47.660;9.126;2023-03-18T07:10:32;4.07;;;3.67;;
34403;SDS011;23116;47.660;9.126;2023-03-18T07:13:20;5.15;;;3.83;;
34403;SDS011;23116;47.660;9.126;2023-03-18T07:16:07;4.20;;;3.65;;
34403;SDS011;23116;47.660;9.126;2023-03-18T07:18:55;4.68;;;3.90;;
34403;SDS011;23116;47.660;9.126;2023-03-18T07:21:43;5.38;;;3.75;;
34403;SDS011;23116;47.660;9.126;2023-03-18T07:24:31;4.22;;;3.40;;
34403;SDS011;23116;47.660;9.126;2023-03-18T07:27:20;4.15;;;3.75;;
34403;SDS011;23116;47.660;9.126;2023-03-18T07:30:08;5.50;;;3.85;;
34403;SDS011;23116;47.660;9.126;2023-03-18T07:32:56;4.40;;;3.72;;
34403;SDS011;23116;47.660;9.126;2023-03-18T07:35:44;4.80;;;3.97;;
34403;SDS011;23116;47.660;9.126;2023-03-18T07:38:31;4.28;;;3.83;;
34403;SDS011;23116;47.660;9.126;2023-03-18T07:41:19;4.43;;;3.95;;
34403;SDS011;23116;47.660;9.126;2023-03-18T07:44:06;4.38;;;3.97;;
34403;SDS011;23116;47.660;9.126;2023-03-18T07:46:54;4.30;;;3.90;;
34403;SDS011;23116;47.660;9.126;2023-03-18T07:49:41;4.65;;;4.20;;
34403;SDS011;23116;47.660;9.126;2023-03-18T07:52:29;5.70;;;4.53;;
34403;SDS011;23116;47.660;9.126;2023-03-18T07:55:16;5.13;;;4.55;;
34403;SDS011;23116;47.660;9.126;2023-03-18T07:58:04;7.10;;;3.83;;
34403;SDS011;23116;47.660;9.126;2023-03-18T08:00:55;4.90;;;4.03;;
34403;SDS011;23116;47.660;9.126;2023-03-18T08:03:44;6.07;;;4.15;;
34403;SDS011;23116;47.660;9.126;2023-03-18T08:06:32;6.00;;;5.18;;
34403;SDS011;23116;47.660;9.126;2023-03-18T08:09:19;4.88;;;4.38;;
34403;SDS011;23116;47.660;9.126;2023-03-18T08:12:07;4.85;;;4.40;;
34403;SDS011;23116;47.660;9.126;2023-03-18T08:14:55;6.82;;;4.05;;
34403;SDS011;23116;47.660;9.126;2023-03-18T08:17:44;5.80;;;4.60;;
34403;SDS011;23116;47.660;9.126;2023-03-18T08:20:31;5.50;;;4.70;;
34403;SDS011;23116;47.660;9.126;2023-03-18T08:23:19;4.43;;;3.97;;
34403;SDS011;23116;47.660;9.126;2023-03-18T08:26:07;5.00;;;4.50;;
34403;SDS011;23116;47.660;9.126;2023-03-18T08:28:55;5.07;;;4.57;;
34403;SDS011;23116;47.660;9.126;2023-03-18T08:31:43;6.45;;;5.32;;
34403;SDS011;23116;47.660;9.126;2023-03-18T08:34:31;5.95;;;4.60;;
34403;SDS011;23116;47.660;9.126;2023-03-18T08:37:18;5.45;;;4.80;;
34403;SDS011;23116;47.660;9.126;2023-03-18T08:40:06;5.55;;;4.80;;
34403;SDS011;23116;47.660;9.126;2023-03-18T08:42:54;5.53;;;4.70;;
34403;SDS011;23116;47.660;9.126;2023-03-18T08:45:42;4.72;;;4.25;;
34403;SDS011;23116;47.660;9.126;2023-03-18T08:48:30;5.70;;;4.97;;
34403;SDS011;23116;47.660;9.126;2023-03-18T08:51:19;5.50;;;4.95;;
34403;SDS011;23116;47.660;9.126;2023-03-18T08:54:06;5.10;;;4.60;;
34403;SDS011;23116;47.660;9.126;2023-03-18T08:56:54;6.13;;;4.53;;
34403;SDS011;23116;47.660;9.126;2023-03-18T08:59:42;4.60;;;4.13;;
34403;SDS011;23116;47.660;9.126;2023-03-18T09:02:30;5.28;;;4.68;;
34403;SDS011;23116;47.660;9.126;2023-03-18T09:05:18;4.97;;;4.47;;
34403;SDS011;23116;47.660;9.126;2023-03-18T09:08:06;6.60;;;5.85;;
34403;SDS011;23116;47.660;9.126;2023-03-18T09:10:53;5.97;;;4.63;;
34403;SDS011;23116;47.660;9.126;2023-03-18T09:13:41;6.95;;;6.18;;
34403;SDS011;23116;47.660;9.126;2023-03-18T09:16:28;5.80;;;5.25;;
34403;SDS011;23116;47.660;9.126;2023-03-18T09:19:15;6.65;;;5.72;;
34403;SDS011;23116;47.660;9.126;2023-03-18T09:22:03;7.28;;;6.43;;
34403;SDS011;23116;47.660;9.126;2023-03-18T09:24:50;6.40;;;5.65;;
34403;SDS011;23116;47.660;9.126;2023-03-18T09:27:38;7.38;;;6.25;;
34403;SDS011;23116;47.660;9.126;2023-03-18T09:30:26;6.90;;;5.38;;
34403;SDS011;23116;47.660;9.126;2023-03-18T09:33:14;6.72;;;6.03;;
34403;SDS011;23116;47.660;9.126;2023-03-18T09:36:02;6.07;;;5.47;;
34403;SDS011;23116;47.660;9.126;2023-03-18T09:38:50;8.45;;;5.32;;
34403;SDS011;23116;47.660;9.126;2023-03-18T09:41:42;6.85;;;5.45;;
34403;SDS011;23116;47.660;9.126;2023-03-18T09:44:57;5.97;;;5.38;;
34403;SDS011;23116;47.660;9.126;2023-03-18T09:48:33;5.63;;;5.13;;
34403;SDS011;23116;47.660;9.126;2023-03-18T09:51:49;6.70;;;5.47;;
34403;SDS011;23116;47.660;9.126;2023-03-18T09:55:08;5.82;;;5.32;;
34403;SDS011;23116;47.660;9.126;2023-03-18T10:01:51;4.88;;;4.38;;
34403;SDS011;23116;47.660;9.126;2023-03-18T10:04:45;4.03;;;3.47;;
34403;SDS011;23116;47.660;9.126;2023-03-18T10:07:40;4.55;;;3.70;;
34403;SDS011;23116;47.660;9.126;2023-03-18T10:10:37;4.85;;;3.85;;
34403;SDS011;23116;47.660;9.126;2023-03-18T10:13:41;3.65;;;3.20;;
34403;SDS011;23116;47.660;9.126;2023-03-18T10:16:47;3.97;;;3.03;;
34403;SDS011;23116;47.660;9.126;2023-03-18T10:19:58;3.00;;;2.70;;
34403;SDS011;23116;47.660;9.126;2023-03-18T10:25:51;5.00;;;2.63;;
34403;SDS011;23116;47.660;9.126;2023-03-18T10:28:59;3.15;;;2.85;;
34403;SDS011;23116;47.660;9.126;2023-03-18T10:36:03;3.58;;;2.55;;
34403;SDS011;23116;47.660;9.126;2023-03-18T10:39:22;3.45;;;2.80;;
34403;SDS011;23116;47.660;9.126;2023-03-18T10:42:15;5.68;;;2.85;;
34403;SDS011;23116;47.660;9.126;2023-03-18T10:45:22;3.42;;;2.50;;
34403;SDS011;23116;47.660;9.126;2023-03-18T10:56:57;3.35;;;2.75;;
34403;SDS011;23116;47.660;9.126;2023-03-18T10:59:24;3.50;;;2.75;;
34403;SDS011;23116;47.660;9.126;2023-03-18T11:01:53;3.20;;;2.90;;
34403;SDS011;23116;47.660;9.126;2023-03-18T11:04:31;3.03;;;2.80;;
34403;SDS011;23116;47.660;9.126;2023-03-18T11:07:13;3.13;;;2.83;;
34403;SDS011;23116;47.660;9.126;2023-03-18T11:09:52;3.25;;;2.35;;
34403;SDS011;23116;47.660;9.126;2023-03-18T11:12:34;2.55;;;2.03;;
34403;SDS011;23116;47.660;9.126;2023-03-18T11:15:03;2.55;;;2.10;;
34403;SDS011;23116;47.660;9.126;2023-03-18T11:17:37;2.63;;;2.42;;
34403;SDS011;23116;47.660;9.126;2023-03-18T11:20:20;3.20;;;2.53;;
34403;SDS011;23116;47.660;9.126;2023-03-18T11:23:17;3.13;;;2.50;;
34403;SDS011;23116;47.660;9.126;2023-03-18T11:29:09;3.08;;;2.80;;
34403;SDS011;23116;47.660;9.126;2023-03-18T11:31:52;4.80;;;3.00;;
34403;SDS011;23116;47.660;9.126;2023-03-18T11:34:26;6.30;;;3.30;;
34403;SDS011;23116;47.660;9.126;2023-03-18T11:37:03;2.90;;;2.40;;
34403;SDS011;23116;47.660;9.126;2023-03-18T11:39:39;2.50;;;2.30;;
34403;SDS011;23116;47.660;9.126;2023-03-18T11:42:19;3.60;;;2.88;;
34403;SDS011;23116;47.660;9.126;2023-03-18T11:44:53;3.90;;;2.47;;
34403;SDS011;23116;47.660;9.126;2023-03-18T11:47:26;4.57;;;3.22;;
34403;SDS011;23116;47.660;9.126;2023-03-18T11:50:03;3.47;;;2.85;;
34403;SDS011;23116;47.660;9.126;2023-03-18T11:52:39;4.45;;;3.28;;
34403;SDS011;23116;47.660;9.126;2023-03-18T12:10:23;4.03;;;2.90;;
34403;SDS011;23116;47.660;9.126;2023-03-18T12:13:03;3.35;;;3.05;;
34403;SDS011;23116;47.660;9.126;2023-03-18T12:31:05;3.40;;;2.50;;
34403;SDS011;23116;47.660;9.126;2023-03-18T12:34:02;3.08;;;2.33;;
34403;SDS011;23116;47.660;9.126;2023-03-18T12:39:18;2.60;;;2.40;;
34403;SDS011;23116;47.660;9.126;2023-03-18T12:42:10;3.85;;;2.58;;
34403;SDS011;23116;47.660;9.126;2023-03-18T12:45:09;3.70;;;2.80;;
34403;SDS011;23116;47.660;9.126;2023-03-18T12:47:48;3.17;;;2.25;;
34403;SDS011;23116;47.660;9.126;2023-03-18T12:50:53;4.13;;;2.88;;
34403;SDS011;23116;47.660;9.126;2023-03-18T12:53:36;3.00;;;2.20;;
34403;SDS011;23116;47.660;9.126;2023-03-18T12:56:13;3.80;;;2.40;;
34403;SDS011;23116;47.660;9.126;2023-03-18T12:59:00;3.33;;;2.65;;
34403;SDS011;23116;47.660;9.126;2023-03-18T13:01:39;3.25;;;2.40;;
34403;SDS011;23116;47.660;9.126;2023-03-18T13:07:11;2.28;;;1.73;;
34403;SDS011;23116;47.660;9.126;2023-03-18T13:12:56;3.72;;;2.17;;
34403;SDS011;23116;47.660;9.126;2023-03-18T13:15:39;3.58;;;2.13;;
34403;SDS011;23116;47.660;9.126;2023-03-18T13:18:19;4.53;;;2.63;;
34403;SDS011;23116;47.660;9.126;2023-03-18T13:38:04;2.35;;;1.92;;
34403;SDS011;23116;47.660;9.126;2023-03-18T13:41:05;2.92;;;2.10;;
34403;SDS011;23116;47.660;9.126;2023-03-18T13:43:59;3.47;;;2.17;;
34403;SDS011;23116;47.660;9.126;2023-03-18T13:46:41;2.60;;;1.92;;
34403;SDS011;23116;47.660;9.126;2023-03-18T13:49:29;1.58;;;1.48;;
34403;SDS011;23116;47.660;9.126;2023-03-18T13:51:58;1.77;;;1.58;;
34403;SDS011;23116;47.660;9.126;2023-03-18T13:54:37;1.85;;;1.45;;
34403;SDS011;23116;47.660;9.126;2023-03-18T13:57:17;1.77;;;1.02;;
34403;SDS011;23116;47.660;9.126;2023-03-18T14:14:02;0.95;;;0.90;;
34403;SDS011;23116;47.660;9.126;2023-03-18T14:16:53;1.25;;;1.02;;
34403;SDS011;23116;47.660;9.126;2023-03-18T14:19:28;1.10;;;1.00;;
34403;SDS011;23116;47.660;9.126;2023-03-18T14:22:14;1.42;;;1.10;;
34403;SDS011;23116;47.660;9.126;2023-03-18T14:33:02;1.10;;;0.90;;
34403;SDS011;23116;47.660;9.126;2023-03-18T14:35:56;0.70;;;0.60;;
34403;SDS011;23116;47.660;9.126;2023-03-18T14:38:58;0.80;;;0.77;;
34403;SDS011;23116;47.660;9.126;2023-03-18T14:41:28;1.42;;;1.30;;
34403;SDS011;23116;47.660;9.126;2023-03-18T14:44:07;1.10;;;1.00;;
34403;SDS011;23116;47.660;9.126;2023-03-18T14:46:43;0.95;;;0.90;;
34403;SDS011;23116;47.660;9.126;2023-03-18T14:52:00;1.20;;;1.10;;
34403;SDS011;23116;47.660;9.126;2023-03-18T14:54:51;1.63;;;1.17;;
34403;SDS011;23116;47.660;9.126;2023-03-18T14:57:21;1.52;;;1.42;;
34403;SDS011;23116;47.660;9.126;2023-03-18T14:59:50;2.20;;;1.75;;
34403;SDS011;23116;47.660;9.126;2023-03-18T15:02:24;3.20;;;1.88;;
34403;SDS011;23116;47.660;9.126;2023-03-18T15:04:57;1.80;;;1.45;;
34403;SDS011;23116;47.660;9.126;2023-03-18T15:07:33;2.28;;;1.65;;
34403;SDS011;23116;47.660;9.126;2023-03-18T15:10:06;2.90;;;2.05;;
34403;SDS011;23116;47.660;9.126;2023-03-18T15:12:55;2.63;;;2.22;;
34403;SDS011;23116;47.660;9.126;2023-03-18T15:15:32;5.00;;;2.30;;
34403;SDS011;23116;47.660;9.126;2023-03-18T15:18:15;4.20;;;2.67;;
34403;SDS011;23116;47.660;9.126;2023-03-18T15:21:02;3.42;;;2.60;;
34403;SDS011;23116;47.660;9.126;2023-03-18T15:23:46;3.40;;;2.40;;
34403;SDS011;23116;47.660;9.126;2023-03-18T15:26:21;2.90;;;2.35;;
34403;SDS011;23116;47.660;9.126;2023-03-18T15:28:54;2.80;;;1.83;;
34403;SDS011;23116;47.660;9.126;2023-03-18T15:31:34;3.38;;;2.55;;
34403;SDS011;23116;47.660;9.126;2023-03-18T15:34:21;3.60;;;2.70;;
34403;SDS011;23116;47.660;9.126;2023-03-18T15:36:57;3.92;;;2.40;;
34403;SDS011;23116;47.660;9.126;2023-03-18T15:41:56;2.90;;;2.40;;
34403;SDS011;23116;47.660;9.126;2023-03-18T15:44:29;2.83;;;2.45;;
34403;SDS011;23116;47.660;9.126;2023-03-18T15:49:48;3.20;;;2.40;;
34403;SDS011;23116;47.660;9.126;2023-03-18T15:52:31;2.67;;;2.25;;
34403;SDS011;23116;47.660;9.126;2023-03-18T15:58:20;2.97;;;2.67;;
34403;SDS011;23116;47.660;9.126;2023-03-18T16:01:09;2.50;;;2.08;;
34403;SDS011;23116;47.660;9.126;2023-03-18T16:03:42;3.10;;;2.17;;
34403;SDS011;23116;47.660;9.126;2023-03-18T16:06:11;3.38;;;2.30;;
34403;SDS011;23116;47.660;9.126;2023-03-18T16:08:39;3.08;;;2.60;;
34403;SDS011;23116;47.660;9.126;2023-03-18T16:11:06;3.45;;;2.60;;
34403;SDS011;23116;47.660;9.126;2023-03-18T16:13:36;4.30;;;2.45;;
34403;SDS011;23116;47.660;9.126;2023-03-18T16:16:04;3.53;;;2.60;;
34403;SDS011;23116;47.660;9.126;2023-03-18T16:18:35;3.55;;;2.90;;
34403;SDS011;23116;47.660;9.126;2023-03-18T16:21:02;3.00;;;2.47;;
34403;SDS011;23116;47.660;9.126;2023-03-18T16:23:29;4.22;;;2.60;;
34403;SDS011;23116;47.660;9.126;2023-03-18T16:25:57;2.47;;;2.13;;
34403;SDS011;23116;47.660;9.126;2023-03-18T16:28:24;3.58;;;2.70;;
34403;SDS011;23116;47.660;9.126;2023-03-18T16:30:52;3.28;;;2.15;;
34403;SDS011;23116;47.660;9.126;2023-03-18T16:33:20;3.15;;;2.25;;
34403;SDS011;23116;47.660;9.126;2023-03-18T16:35:50;2.65;;;2.25;;
34403;SDS011;23116;47.660;9.126;2023-03-18T16:38:24;2.67;;;2.38;;
34403;SDS011;23116;47.660;9.126;2023-03-18T16:40:52;2.70;;;2.33;;
34403;SDS011;23116;47.660;9.126;2023-03-18T16:45:57;3.63;;;2.28;;
34403;SDS011;23116;47.660;9.126;2023-03-18T16:48:29;2.22;;;1.92;;
34403;SDS011;23116;47.660;9.126;2023-03-18T16:50:57;5.47;;;3.15;;
34403;SDS011;23116;47.660;9.126;2023-03-18T16:53:25;19.02;;;8.32;;
34403;SDS011;23116;47.660;9.126;2023-03-18T16:55:55;12.70;;;6.68;;
34403;SDS011;23116;47.660;9.126;2023-03-18T16:58:32;7.95;;;5.35;;
34403;SDS011;23116;47.660;9.126;2023-03-18T17:01:02;17.65;;;9.65;;
34403;SDS011;23116;47.660;9.126;2023-03-18T17:03:33;27.60;;;15.10;;
34403;SDS011;23116;47.660;9.126;2023-03-18T17:06:00;20.52;;;12.07;;
34403;SDS011;23116;47.660;9.126;2023-03-18T17:08:28;14.25;;;9.40;;
34403;SDS011;23116;47.660;9.126;2023-03-18T17:10:56;9.98;;;6.45;;
34403;SDS011;23116;47.660;9.126;2023-03-18T17:13:26;6.25;;;4.53;;
34403;SDS011;23116;47.660;9.126;2023-03-18T17:15:55;5.47;;;3.95;;
34403;SDS011;23116;47.660;9.126;2023-03-18T17:18:23;6.72;;;3.88;;
34403;SDS011;23116;47.660;9.126;2023-03-18T17:20:51;7.68;;;5.70;;
34403;SDS011;23116;47.660;9.126;2023-03-18T17:23:26;7.35;;;5.30;;
34403;SDS011;23116;47.660;9.126;2023-03-18T17:25:53;5.97;;;4.55;;
34403;SDS011;23116;47.660;9.126;2023-03-18T17:28:36;5.57;;;4.18;;
34403;SDS011;23116;47.660;9.126;2023-03-18T17:31:08;4.68;;;3.63;;
34403;SDS011;23116;47.660;9.126;2023-03-18T17:33:36;3.80;;;2.95;;
34403;SDS011;23116;47.660;9.126;2023-03-18T17:36:04;4.18;;;3.25;;
34403;SDS011;23116;47.660;9.126;2023-03-18T17:38:32;3.92;;;2.45;;
34403;SDS011;23116;47.660;9.126;2023-03-18T17:41:00;4.30;;;2.53;;
34403;SDS011;23116;47.660;9.126;2023-03-18T17:43:36;3.08;;;2.45;;
34403;SDS011;23116;47.660;9.126;2023-03-18T17:46:04;3.40;;;2.22;;
34403;SDS011;23116;47.660;9.126;2023-03-18T17:48:32;3.13;;;2.30;;
34403;SDS011;23116;47.660;9.126;2023-03-18T17:51:02;2.97;;;2.05;;
34403;SDS011;23116;47.660;9.126;2023-03-18T17:54:19;3.13;;;2.42;;
34403;SDS011;23116;47.660;9.126;2023-03-18T17:56:30;3.17;;;1.90;;
34403;SDS011;23116;47.660;9.126;2023-03-18T17:58:59;2.22;;;1.67;;
34403;SDS011;23116;47.660;9.126;2023-03-18T18:01:28;2.85;;;2.10;;
34403;SDS011;23116;47.660;9.126;2023-03-18T18:03:56;2.90;;;1.80;;
34403;SDS011;23116;47.660;9.126;2023-03-18T18:06:25;2.80;;;1.80;;
34403;SDS011;23116;47.660;9.126;2023-03-18T18:08:56;2.67;;;1.80;;
34403;SDS011;23116;47.660;9.126;2023-03-18T18:11:44;2.63;;;2.13;;
34403;SDS011;23116;47.660;9.126;2023-03-18T18:16:42;2.28;;;1.60;;
34403;SDS011;23116;47.660;9.126;2023-03-18T18:19:12;1.50;;;1.40;;
34403;SDS011;23116;47.660;9.126;2023-03-18T18:21:40;2.63;;;2.13;;
34403;SDS011;23116;47.660;9.126;2023-03-18T18:26:48;1.88;;;1.58;;
34403;SDS011;23116;47.660;9.126;2023-03-18T18:29:17;2.17;;;1.90;;
34403;SDS011;23116;47.660;9.126;2023-03-18T18:31:47;2.40;;;1.93;;
34403;SDS011;23116;47.660;9.126;2023-03-18T18:34:15;2.33;;;1.88;;
34403;SDS011;23116;47.660;9.126;2023-03-18T18:36:44;4.95;;;1.95;;
34403;SDS011;23116;47.660;9.126;2023-03-18T18:39:12;2.92;;;1.98;;
34403;SDS011;23116;47.660;9.126;2023-03-18T18:41:39;2.92;;;2.00;;
34403;SDS011;23116;47.660;9.126;2023-03-18T18:44:06;2.50;;;2.30;;
34403;SDS011;23116;47.660;9.126;2023-03-18T18:46:33;2.63;;;2.20;;
34403;SDS011;23116;47.660;9.126;2023-03-18T18:49:00;2.35;;;1.75;;
34403;SDS011;23116;47.660;9.126;2023-03-18T18:51:28;2.78;;;1.98;;
34403;SDS011;23116;47.660;9.126;2023-03-18T18:53:55;2.60;;;1.67;;
34403;SDS011;23116;47.660;9.126;2023-03-18T18:56:33;1.70;;;1.25;;
34403;SDS011;23116;47.660;9.126;2023-03-18T18:59:01;3.60;;;1.90;;
34403;SDS011;23116;47.660;9.126;2023-03-18T19:01:59;1.48;;;1.35;;
34403;SDS011;23116;47.660;9.126;2023-03-18T19:04:27;2.13;;;1.80;;
34403;SDS011;23116;47.660;9.126;2023-03-18T19:06:54;1.40;;;1.27;;
34403;SDS011;23116;47.660;9.126;2023-03-18T19:09:22;4.30;;;1.55;;
34403;SDS011;23116;47.660;9.126;2023-03-18T19:11:51;2.38;;;1.40;;
34403;SDS011;23116;47.660;9.126;2023-03-18T19:16:52;1.98;;;1.55;;